CheckWX is a tool to help pilots better visualize weather data.  It is not intended as a substitute for an official pre-flight weather briefing.

05:21:49 UTC

KNFW METAR
Fort Worth NAS JRB (Carswell Field) Airport
Fort Worth, Texas, USA
Current

30 mins ago

KNFW 200452Z 32006KT 10SM OVC006 04/02 A2996 RMK AO2 CIG 002 N SLP128 T00390022 VISNO N $
Observed
Feb-20 @ 04:52 UTC
Wind
  • 320° at 6 KTS
Visibility
16,093 meters
Flight Rules
IFR
Cloud Levels
  • Overcast at 600' AGL
Temperature
C / 39°F
Dewpoint
C / 36°F
Humidity
87%
Altimeter
29.96" Hg
Pressure
1012.8 hPa
Previous

1 hour ago

KNFW 200352Z 35006KT 10SM OVC008 04/02 A2996 RMK AO2 CIG 003 N SLP129 T00390022 VISNO N $
Observed
Feb-20 @ 03:52 UTC
Wind
  • 350° at 6 KTS
Visibility
16,093 meters
Flight Rules
IFR
Cloud Levels
  • Overcast at 800' AGL
Temperature
C / 39°F
Dewpoint
C / 36°F
Humidity
87%
Altimeter
29.96" Hg
Pressure
1012.9 hPa
Previous

2 hours ago

KNFW 200307Z 36005KT 10SM BKN008 BKN014 OVC019 04/02 A2996 RMK AO2 T00390022 VISNO N $
Observed
Feb-20 @ 03:07 UTC
Wind
  • 360° at 5 KTS
Visibility
16,093 meters
Flight Rules
IFR
Cloud Levels
  • Broken at 800' AGL
  • Broken at 1,400' AGL
  • Overcast at 1,900' AGL
Temperature
C / 39°F
Dewpoint
C / 36°F
Humidity
87%
Altimeter
29.96" Hg
Pressure
1014.52 hPa